createdAt,value
2022-09-22T00:01:05.526Z,9.16
2022-09-22T00:03:36.920Z,9.14
2022-09-22T00:06:05.117Z,9.14
2022-09-22T00:08:33.465Z,9.19
2022-09-22T00:11:18.604Z,9.15
2022-09-22T00:13:51.190Z,9.25
2022-09-22T00:16:21.019Z,9.21
2022-09-22T00:18:47.659Z,9.28
2022-09-22T00:21:17.256Z,9.23
2022-09-22T00:23:44.188Z,9.14
2022-09-22T00:26:14.219Z,9.11
2022-09-22T00:28:41.685Z,9.04
2022-09-22T00:31:14.142Z,8.91
2022-09-22T00:33:41.436Z,8.94
2022-09-22T00:36:09.374Z,8.87
2022-09-22T00:38:38.299Z,8.94
2022-09-22T00:41:06.169Z,8.87
2022-09-22T00:43:37.651Z,8.80
2022-09-22T00:46:24.220Z,8.88
2022-09-22T00:49:05.404Z,8.90
2022-09-22T00:51:35.222Z,8.78
2022-09-22T00:54:06.003Z,8.67
2022-09-22T00:56:49.963Z,8.69
2022-09-22T00:59:19.251Z,8.55
2022-09-22T01:01:45.976Z,8.55
2022-09-22T01:04:12.842Z,8.62
2022-09-22T01:06:40.516Z,8.55
2022-09-22T01:09:08.579Z,8.53
2022-09-22T01:11:37.990Z,8.40
2022-09-22T01:14:13.398Z,8.38
2022-09-22T01:16:42.991Z,8.44
2022-09-22T01:19:51.622Z,8.41
2022-09-22T01:22:55.858Z,8.38
2022-09-22T01:25:25.273Z,8.40
2022-09-22T01:28:20.302Z,8.36
2022-09-22T01:31:00.363Z,8.32
2022-09-22T01:33:36.049Z,8.22
2022-09-22T01:36:21.168Z,8.23
2022-09-22T01:39:04.628Z,8.25
2022-09-22T01:41:45.007Z,8.38
2022-09-22T01:44:28.693Z,8.37
2022-09-22T01:47:15.216Z,8.14
2022-09-22T01:49:47.912Z,8.19
2022-09-22T01:52:23.442Z,8.26
2022-09-22T01:55:03.042Z,8.35
2022-09-22T01:57:40.529Z,8.26
2022-09-22T02:00:10.697Z,8.30
2022-09-22T02:02:50.562Z,8.15
2022-09-22T02:05:46.625Z,8.07
2022-09-22T02:08:28.199Z,8.07
2022-09-22T02:10:58.842Z,8.01
2022-09-22T02:13:26.030Z,8.07
2022-09-22T02:16:01.711Z,8.07
2022-09-22T02:18:37.302Z,8.05
2022-09-22T02:21:04.898Z,7.94
2022-09-22T02:23:32.199Z,7.93
2022-09-22T02:26:01.931Z,7.91
2022-09-22T02:28:29.163Z,7.90
2022-09-22T02:31:18.490Z,7.86
2022-09-22T02:33:43.301Z,7.89
2022-09-22T02:36:25.073Z,7.78
2022-09-22T02:39:05.733Z,7.84
2022-09-22T02:41:41.236Z,7.84
2022-09-22T02:44:17.816Z,7.75
2022-09-22T02:47:08.756Z,7.71
2022-09-22T02:49:35.929Z,7.77
2022-09-22T02:52:07.934Z,7.80
2022-09-22T02:54:34.495Z,7.77
2022-09-22T02:57:01.008Z,7.80
2022-09-22T02:59:27.557Z,7.70
2022-09-22T03:01:55.799Z,7.69
2022-09-22T03:04:22.704Z,7.60
2022-09-22T03:06:49.330Z,7.72
2022-09-22T03:09:17.621Z,7.75
2022-09-22T03:11:44.495Z,7.83
2022-09-22T03:14:11.117Z,7.80
2022-09-22T03:16:37.718Z,7.80
2022-09-22T03:19:04.656Z,7.65
2022-09-22T03:21:31.217Z,7.64
2022-09-22T03:23:57.767Z,7.61
2022-09-22T03:26:24.484Z,7.49
2022-09-22T03:28:51.057Z,7.43
2022-09-22T03:31:17.664Z,7.51
2022-09-22T03:33:44.236Z,7.44
2022-09-22T03:36:10.812Z,7.46
2022-09-22T03:38:37.360Z,7.42
2022-09-22T03:41:04.128Z,7.60
2022-09-22T03:43:30.822Z,7.49
2022-09-22T03:45:58.614Z,7.33
2022-09-22T03:48:27.036Z,7.26
2022-09-22T03:50:53.648Z,7.23
2022-09-22T03:53:20.216Z,7.40
2022-09-22T03:55:46.926Z,7.28
2022-09-22T03:58:13.586Z,7.32
2022-09-22T04:00:40.109Z,7.21
2022-09-22T04:03:06.942Z,7.09
2022-09-22T04:05:33.500Z,7.21
2022-09-22T04:08:00.156Z,7.32
2022-09-22T04:10:26.934Z,7.34
2022-09-22T04:12:53.527Z,7.29
2022-09-22T04:15:20.102Z,7.23
2022-09-22T04:17:47.072Z,7.12
2022-09-22T04:20:13.697Z,7.02
2022-09-22T04:22:40.352Z,7.02
2022-09-22T04:25:07.781Z,7.08
2022-09-22T04:27:34.281Z,6.97
2022-09-22T04:30:01.510Z,7.20
2022-09-22T04:32:28.024Z,7.14
2022-09-22T04:34:54.663Z,7.06
2022-09-22T04:37:21.181Z,7.06
2022-09-22T04:39:47.747Z,6.94
2022-09-22T04:42:14.268Z,6.98
2022-09-22T04:44:40.937Z,7.02
2022-09-22T04:47:07.443Z,7.00
2022-09-22T04:49:34.017Z,7.06
2022-09-22T04:52:00.733Z,7.06
2022-09-22T04:54:27.307Z,6.99
2022-09-22T04:56:53.812Z,7.02
2022-09-22T04:59:20.546Z,6.97
2022-09-22T05:01:47.160Z,6.99
2022-09-22T05:04:13.842Z,7.16
2022-09-22T05:06:41.685Z,7.03
2022-09-22T05:09:08.282Z,6.96
2022-09-22T05:11:34.870Z,6.97
2022-09-22T05:14:02.156Z,7.01
2022-09-22T05:16:28.719Z,6.97
2022-09-22T05:18:55.828Z,6.90
2022-09-22T05:21:22.324Z,6.84
2022-09-22T05:23:48.943Z,6.87
2022-09-22T05:26:15.529Z,6.88
2022-09-22T05:28:42.886Z,6.98
2022-09-22T05:31:09.422Z,6.91
2022-09-22T05:33:36.823Z,6.84
2022-09-22T05:36:03.593Z,6.98
2022-09-22T05:38:30.163Z,6.95
2022-09-22T05:40:56.736Z,6.98
2022-09-22T05:43:23.277Z,7.03
2022-09-22T05:45:50.035Z,7.04
2022-09-22T05:48:16.724Z,6.76
2022-09-22T05:50:43.946Z,6.86
2022-09-22T05:53:11.365Z,6.97
2022-09-22T05:55:39.658Z,7.06
2022-09-22T05:58:09.136Z,7.07
2022-09-22T06:00:35.763Z,7.16
2022-09-22T06:03:02.510Z,7.25
2022-09-22T06:05:29.180Z,7.27
2022-09-22T06:08:01.745Z,7.19
2022-09-22T06:10:28.745Z,7.33
2022-09-22T06:13:00.206Z,7.37
2022-09-22T06:15:28.551Z,7.39
2022-09-22T06:17:56.207Z,7.37
2022-09-22T06:20:22.820Z,7.34
2022-09-22T06:22:49.500Z,7.48
2022-09-22T06:25:17.066Z,7.58
2022-09-22T06:27:44.055Z,7.64
2022-09-22T06:30:11.744Z,7.70
2022-09-22T06:32:43.797Z,7.73
2022-09-22T06:35:11.400Z,7.70
2022-09-22T06:37:38.639Z,7.96
2022-09-22T06:40:08.254Z,8.05
2022-09-22T06:42:35.610Z,8.10
2022-09-22T06:45:04.533Z,8.10
2022-09-22T06:47:32.899Z,8.22
2022-09-22T06:50:01.315Z,8.33
2022-09-22T06:52:28.963Z,8.53
2022-09-22T06:54:58.483Z,8.66
2022-09-22T06:57:30.400Z,8.74
2022-09-22T06:59:56.907Z,8.86
2022-09-22T07:02:29.466Z,8.86
2022-09-22T07:04:59.306Z,8.89
2022-09-22T07:07:28.753Z,9.04
2022-09-22T07:09:55.828Z,9.09
2022-09-22T07:12:22.455Z,9.22
2022-09-22T07:14:49.576Z,9.25
2022-09-22T07:17:20.252Z,9.33
2022-09-22T07:19:47.137Z,9.48
2022-09-22T07:22:19.129Z,9.64
2022-09-22T07:24:45.924Z,9.75
2022-09-22T07:27:20.367Z,9.90
2022-09-22T07:29:48.793Z,9.97
2022-09-22T07:32:15.618Z,9.98
2022-09-22T07:34:42.205Z,10.30
2022-09-22T07:37:11.289Z,10.35
2022-09-22T07:39:37.836Z,10.61
2022-09-22T07:42:04.613Z,10.72
2022-09-22T07:44:49.715Z,10.74
2022-09-22T07:47:36.257Z,11.00
2022-09-22T07:50:04.664Z,11.01
2022-09-22T07:52:31.287Z,10.94
2022-09-22T07:54:57.829Z,11.31
2022-09-22T07:57:24.395Z,11.42
2022-09-22T07:59:51.071Z,11.60
2022-09-22T08:02:17.631Z,11.58
2022-09-22T08:04:44.189Z,11.34
2022-09-22T08:07:10.748Z,11.53
2022-09-22T08:09:37.291Z,11.46
2022-09-22T08:12:04.063Z,11.55
2022-09-22T08:14:31.074Z,11.61
2022-09-22T08:16:57.616Z,11.78
2022-09-22T08:19:24.318Z,11.90
2022-09-22T08:21:52.887Z,12.14
2022-09-22T08:24:22.000Z,12.31
2022-09-22T08:26:53.013Z,12.48
2022-09-22T08:29:20.572Z,12.71
2022-09-22T08:31:47.660Z,12.71
2022-09-22T08:34:16.515Z,12.75
2022-09-22T08:36:47.005Z,12.69
2022-09-22T08:39:14.515Z,12.75
2022-09-22T08:42:07.984Z,12.91
2022-09-22T08:45:02.677Z,13.10
2022-09-22T08:47:55.705Z,13.27
2022-09-22T08:50:58.154Z,13.46
2022-09-22T08:53:26.866Z,13.45
2022-09-22T08:56:06.920Z,13.63
2022-09-22T08:58:50.390Z,13.68
2022-09-22T09:01:38.295Z,13.90
2022-09-22T09:04:13.850Z,14.25
2022-09-22T09:07:14.523Z,14.20
2022-09-22T09:10:06.078Z,14.39
2022-09-22T09:12:53.334Z,14.35
2022-09-22T09:15:39.247Z,14.75
2022-09-22T09:18:16.030Z,14.92
2022-09-22T09:20:47.945Z,15.11
2022-09-22T09:26:18.627Z,15.20
2022-09-22T09:28:53.857Z,15.17
2022-09-22T09:31:46.114Z,15.59
2022-09-22T09:34:18.014Z,15.70
2022-09-22T09:37:10.249Z,15.77
2022-09-22T09:39:39.531Z,15.74
2022-09-22T09:42:17.547Z,16.02
2022-09-22T09:44:45.194Z,16.09
2022-09-22T09:47:17.334Z,15.95
2022-09-22T09:49:44.069Z,15.77
2022-09-22T09:52:12.774Z,15.98
2022-09-22T09:54:41.439Z,16.26
2022-09-22T09:57:09.887Z,16.38
2022-09-22T09:59:57.010Z,16.48
2022-09-22T10:02:37.552Z,16.58
2022-09-22T10:05:04.529Z,16.71
2022-09-22T10:07:41.824Z,16.88
2022-09-22T10:10:37.745Z,16.87
2022-09-22T10:13:04.326Z,17.15
2022-09-22T10:15:36.484Z,17.31
2022-09-22T10:18:23.528Z,17.36
2022-09-22T10:21:23.678Z,17.23
2022-09-22T10:23:51.662Z,17.35
2022-09-22T10:26:27.106Z,17.54
2022-09-22T10:29:12.304Z,17.90
2022-09-22T10:32:02.781Z,17.79
2022-09-22T10:34:36.500Z,17.55
2022-09-22T10:37:10.991Z,17.82
2022-09-22T10:39:47.348Z,17.73
2022-09-22T10:42:25.798Z,17.97
2022-09-22T10:44:53.620Z,17.86
2022-09-22T10:47:40.636Z,17.93
2022-09-22T10:50:27.784Z,17.77
2022-09-22T10:53:12.837Z,17.97
2022-09-22T10:55:52.891Z,18.22
2022-09-22T10:58:27.391Z,18.40
2022-09-22T11:01:09.288Z,18.15
2022-09-22T11:03:56.637Z,18.82
2022-09-22T11:06:49.036Z,18.76
2022-09-22T11:09:34.294Z,18.91
2022-09-22T11:12:19.110Z,18.94
2022-09-22T11:14:51.943Z,18.93
2022-09-22T11:17:37.486Z,19.07
2022-09-22T11:20:23.084Z,19.33
2022-09-22T11:23:00.919Z,19.31
2022-09-22T11:25:55.417Z,19.19
2022-09-22T11:29:00.202Z,19.32
2022-09-22T11:31:26.957Z,19.56
2022-09-22T11:34:19.694Z,19.41
2022-09-22T11:37:27.380Z,19.67
2022-09-22T11:40:17.596Z,19.89
2022-09-22T11:43:04.735Z,20.19
2022-09-22T11:46:06.329Z,20.38
2022-09-22T11:49:02.169Z,20.07
2022-09-22T11:51:37.631Z,19.75
2022-09-22T11:54:30.117Z,19.67
2022-09-22T11:57:04.736Z,19.56
2022-09-22T11:59:59.437Z,19.32
2022-09-22T12:02:38.498Z,19.63
2022-09-22T12:05:13.209Z,19.57
2022-09-22T12:07:49.529Z,19.79
2022-09-22T12:10:30.207Z,19.71
2022-09-22T12:12:57.106Z,20.10
2022-09-22T12:15:29.447Z,20.03
2022-09-22T12:18:29.458Z,20.03
2022-09-22T12:21:06.593Z,19.87
2022-09-22T12:23:40.866Z,19.70
2022-09-22T12:26:13.330Z,19.63
2022-09-22T12:28:43.128Z,19.76
2022-09-22T12:31:16.038Z,19.74
2022-09-22T12:33:52.136Z,19.77
2022-09-22T12:36:36.716Z,19.89
2022-09-22T12:39:24.233Z,20.04
2022-09-22T12:41:57.868Z,20.21
2022-09-22T12:44:28.538Z,20.46
2022-09-22T12:47:01.835Z,20.62
2022-09-22T12:49:28.618Z,20.31
2022-09-22T12:51:55.180Z,20.67
2022-09-22T12:54:21.750Z,20.78
2022-09-22T12:57:20.412Z,20.93
2022-09-22T13:00:05.765Z,20.93
2022-09-22T13:02:41.155Z,20.90
2022-09-22T13:05:10.704Z,20.39
2022-09-22T13:07:42.906Z,20.27
2022-09-22T13:10:21.961Z,20.10
2022-09-22T13:13:03.646Z,19.88
2022-09-22T13:15:51.880Z,19.93
2022-09-22T13:18:39.892Z,19.61
2022-09-22T13:21:12.904Z,19.77
2022-09-22T13:23:51.753Z,19.81
2022-09-22T13:26:40.599Z,19.90
2022-09-22T13:29:19.144Z,20.09
2022-09-22T13:31:54.349Z,19.92
2022-09-22T13:34:35.874Z,20.16
2022-09-22T13:37:14.936Z,20.77
2022-09-22T13:39:47.412Z,20.95
2022-09-22T13:42:31.646Z,20.88
2022-09-22T13:45:07.784Z,21.20
2022-09-22T13:47:35.443Z,21.41
2022-09-22T13:50:09.335Z,21.25
2022-09-22T13:52:39.325Z,20.91
2022-09-22T13:55:26.153Z,20.88
2022-09-22T13:57:56.192Z,20.67
2022-09-22T14:01:01.498Z,20.52
2022-09-22T14:03:27.793Z,20.16
2022-09-22T14:05:55.804Z,20.15
2022-09-22T14:08:29.716Z,20.23
2022-09-22T14:10:58.346Z,20.30
2022-09-22T14:13:41.108Z,20.40
2022-09-22T14:16:28.164Z,20.50
2022-09-22T14:19:08.922Z,20.83
2022-09-22T14:22:06.889Z,20.63
2022-09-22T14:24:37.651Z,20.44
2022-09-22T14:27:07.707Z,20.45
2022-09-22T14:29:37.456Z,20.24
2022-09-22T14:32:11.873Z,20.53
2022-09-22T14:34:39.970Z,20.32
2022-09-22T14:37:20.532Z,20.70
2022-09-22T14:39:48.081Z,20.72
2022-09-22T14:42:27.614Z,20.82
2022-09-22T14:45:14.006Z,20.91
2022-09-22T14:47:40.848Z,20.94
2022-09-22T14:50:27.300Z,21.09
2022-09-22T14:52:54.088Z,21.09
2022-09-22T14:55:36.033Z,21.39
2022-09-22T14:58:07.653Z,21.60
2022-09-22T15:00:54.463Z,21.56
2022-09-22T15:03:29.640Z,21.41
2022-09-22T15:06:12.985Z,21.08
2022-09-22T15:08:42.184Z,21.06
2022-09-22T15:11:09.180Z,20.95
2022-09-22T15:13:40.279Z,21.32
2022-09-22T15:16:40.397Z,20.97
2022-09-22T15:19:11.969Z,21.35
2022-09-22T15:21:47.767Z,21.26
2022-09-22T15:24:22.133Z,21.49
2022-09-22T15:26:49.008Z,21.65
2022-09-22T15:29:17.321Z,21.81
2022-09-22T15:31:43.971Z,21.43
2022-09-22T15:34:12.751Z,21.68
2022-09-22T15:36:45.830Z,21.47
2022-09-22T15:39:23.642Z,21.33
2022-09-22T15:41:51.811Z,21.20
2022-09-22T15:44:18.346Z,20.82
2022-09-22T15:46:51.357Z,20.89
2022-09-22T15:49:29.739Z,20.64
2022-09-22T15:52:11.149Z,20.29
2022-09-22T15:54:43.482Z,19.80
2022-09-22T15:57:11.561Z,20.06
2022-09-22T15:59:38.496Z,19.97
2022-09-22T16:02:10.764Z,19.87
2022-09-22T16:04:37.378Z,20.01
2022-09-22T16:07:08.341Z,19.84
2022-09-22T16:09:35.502Z,19.82
2022-09-22T16:12:03.138Z,19.96
2022-09-22T16:14:29.687Z,19.83
2022-09-22T16:16:56.366Z,19.56
2022-09-22T16:19:23.157Z,19.55
2022-09-22T16:21:52.052Z,19.72
2022-09-22T16:24:19.405Z,19.71
2022-09-22T16:26:45.939Z,19.61
2022-09-22T16:29:12.518Z,19.44
2022-09-22T16:31:39.346Z,19.50
2022-09-22T16:34:07.172Z,19.27
2022-09-22T16:36:36.136Z,19.35
2022-09-22T16:39:04.024Z,19.32
2022-09-22T16:41:32.937Z,19.23
2022-09-22T16:44:00.350Z,19.28
2022-09-22T16:46:33.491Z,19.28
2022-09-22T16:49:06.025Z,19.25
2022-09-22T16:51:38.157Z,19.20
2022-09-22T16:54:06.969Z,19.02
2022-09-22T16:56:35.654Z,18.99
2022-09-22T16:59:03.034Z,18.91
2022-09-22T17:01:32.241Z,18.87
2022-09-22T17:03:59.035Z,18.76
2022-09-22T17:06:26.453Z,18.66
2022-09-22T17:08:56.873Z,18.55
2022-09-22T17:11:29.787Z,18.45
2022-09-22T17:14:01.402Z,18.29
2022-09-22T17:16:34.292Z,18.15
2022-09-22T17:19:09.147Z,17.97
2022-09-22T17:21:37.637Z,17.85
2022-09-22T17:24:06.241Z,17.62
2022-09-22T17:26:38.701Z,17.54
2022-09-22T17:29:06.515Z,17.42
2022-09-22T17:31:35.862Z,17.31
2022-09-22T17:34:02.822Z,17.25
2022-09-22T17:36:29.822Z,17.16
2022-09-22T17:38:58.734Z,17.17
2022-09-22T17:41:28.140Z,17.08
2022-09-22T17:44:01.325Z,17.02
2022-09-22T17:46:31.293Z,16.97
2022-09-22T17:49:17.811Z,16.89
2022-09-22T17:52:07.529Z,16.95
2022-09-22T17:55:00.705Z,16.79
2022-09-22T17:57:29.794Z,16.56
2022-09-22T17:59:57.467Z,16.46
2022-09-22T18:02:27.112Z,16.41
2022-09-22T18:04:54.087Z,16.36
2022-09-22T18:07:25.512Z,16.28
2022-09-22T18:09:55.381Z,16.13
2022-09-22T18:12:24.759Z,16.11
2022-09-22T18:14:53.414Z,15.89
2022-09-22T18:17:23.811Z,15.66
2022-09-22T18:19:54.127Z,15.79
2022-09-22T18:22:22.086Z,15.45
2022-09-22T18:24:50.214Z,15.47
2022-09-22T18:27:19.355Z,15.33
2022-09-22T18:29:53.223Z,15.35
2022-09-22T18:32:20.300Z,15.30
2022-09-22T18:34:47.539Z,15.13
2022-09-22T18:37:15.669Z,15.05
2022-09-22T18:39:45.259Z,14.81
2022-09-22T18:42:12.494Z,14.86
2022-09-22T18:44:39.317Z,14.78
2022-09-22T18:47:06.256Z,14.70
2022-09-22T18:49:35.880Z,14.18
2022-09-22T18:52:05.163Z,14.21
2022-09-22T18:54:31.804Z,14.29
2022-09-22T18:56:58.589Z,14.33
2022-09-22T18:59:27.129Z,14.43
2022-09-22T19:01:54.031Z,14.23
2022-09-22T19:04:23.006Z,14.16
2022-09-22T19:07:10.850Z,14.06
2022-09-22T19:09:37.952Z,14.01
2022-09-22T19:12:07.960Z,14.06
2022-09-22T19:14:39.158Z,13.98
2022-09-22T19:17:07.450Z,13.92
2022-09-22T19:19:37.084Z,13.86
2022-09-22T19:22:09.218Z,13.96
2022-09-22T19:24:37.182Z,13.88
2022-09-22T19:27:04.988Z,13.82
2022-09-22T19:29:32.693Z,13.81
2022-09-22T19:32:00.825Z,13.86
2022-09-22T19:34:28.594Z,13.82
2022-09-22T19:36:55.930Z,13.84
2022-09-22T19:39:23.527Z,13.69
2022-09-22T19:41:51.857Z,13.69
2022-09-22T19:44:20.970Z,13.61
2022-09-22T19:46:48.480Z,13.53
2022-09-22T19:49:15.831Z,13.57
2022-09-22T19:51:42.688Z,13.58
2022-09-22T19:54:09.425Z,13.54
2022-09-22T19:56:36.434Z,13.35
2022-09-22T19:59:04.075Z,13.45
2022-09-22T20:01:33.863Z,13.40
2022-09-22T20:04:00.656Z,13.27
2022-09-22T20:06:28.010Z,13.27
2022-09-22T20:09:02.760Z,13.25
2022-09-22T20:11:40.752Z,13.09
2022-09-22T20:14:22.605Z,13.09
2022-09-22T20:17:01.914Z,13.04
2022-09-22T20:19:31.381Z,12.95
2022-09-22T20:22:16.867Z,12.98
2022-09-22T20:24:45.168Z,12.99
2022-09-22T20:27:11.813Z,12.97
2022-09-22T20:29:38.357Z,12.97
2022-09-22T20:32:05.145Z,12.86
2022-09-22T20:34:31.773Z,12.99
2022-09-22T20:36:58.518Z,12.76
2022-09-22T20:39:25.049Z,12.79
2022-09-22T20:41:52.841Z,12.74
2022-09-22T20:44:19.405Z,12.75
2022-09-22T20:46:47.806Z,12.76
2022-09-22T20:49:14.670Z,12.68
2022-09-22T20:51:42.337Z,12.78
2022-09-22T20:54:09.197Z,12.74
2022-09-22T20:56:39.408Z,12.74
2022-09-22T20:59:08.690Z,12.68
2022-09-22T21:01:35.717Z,12.65
2022-09-22T21:04:03.975Z,12.60
2022-09-22T21:06:31.048Z,12.56
2022-09-22T21:09:16.961Z,12.55
2022-09-22T21:11:44.202Z,12.63
2022-09-22T21:14:11.184Z,12.55
2022-09-22T21:16:39.829Z,12.42
2022-09-22T21:19:07.364Z,12.47
2022-09-22T21:21:38.322Z,12.40
2022-09-22T21:24:05.762Z,12.34
2022-09-22T21:26:33.065Z,12.40
2022-09-22T21:29:00.110Z,12.29
2022-09-22T21:31:27.269Z,12.21
2022-09-22T21:33:54.094Z,12.29
2022-09-22T21:36:24.677Z,12.26
2022-09-22T21:38:57.199Z,12.27
2022-09-22T21:41:27.558Z,12.20
2022-09-22T21:43:55.117Z,12.25
2022-09-22T21:46:28.691Z,12.17
2022-09-22T21:49:01.034Z,12.18
2022-09-22T21:51:36.342Z,12.17
2022-09-22T21:54:04.846Z,12.22
2022-09-22T21:56:33.653Z,12.28
2022-09-22T21:59:02.549Z,12.22
2022-09-22T22:01:35.874Z,12.11
2022-09-22T22:04:07.874Z,11.97
2022-09-22T22:06:40.831Z,12.07
2022-09-22T22:09:11.392Z,12.04
2022-09-22T22:11:54.674Z,12.03
2022-09-22T22:14:22.596Z,12.01
2022-09-22T22:16:51.620Z,12.10
2022-09-22T22:19:20.674Z,12.11
2022-09-22T22:21:50.367Z,12.12
2022-09-22T22:24:39.278Z,12.09
2022-09-22T22:27:09.703Z,12.11
2022-09-22T22:29:38.656Z,12.02
2022-09-22T22:32:06.973Z,12.08
2022-09-22T22:34:34.093Z,12.07
2022-09-22T22:37:01.077Z,12.05
2022-09-22T22:39:28.350Z,11.99
2022-09-22T22:41:55.249Z,11.88
2022-09-22T22:44:22.509Z,11.84
2022-09-22T22:46:49.120Z,11.84
2022-09-22T22:49:15.845Z,11.81
2022-09-22T22:51:43.411Z,11.75
2022-09-22T22:54:11.757Z,11.72
2022-09-22T22:56:43.227Z,11.71
2022-09-22T22:59:11.758Z,11.69
2022-09-22T23:01:40.258Z,11.60
2022-09-22T23:04:11.122Z,11.62
2022-09-22T23:06:40.290Z,11.55
2022-09-22T23:09:08.474Z,11.66
2022-09-22T23:11:37.667Z,11.57
2022-09-22T23:14:07.460Z,11.46
2022-09-22T23:16:37.690Z,11.43
2022-09-22T23:19:07.760Z,11.47
2022-09-22T23:21:35.351Z,11.41
2022-09-22T23:24:02.802Z,11.37
2022-09-22T23:26:29.768Z,11.33
2022-09-22T23:28:58.502Z,11.27
2022-09-22T23:31:25.942Z,11.21
2022-09-22T23:33:52.868Z,11.13
2022-09-22T23:36:24.537Z,11.17
2022-09-22T23:38:56.038Z,11.07
2022-09-22T23:41:22.806Z,10.98
2022-09-22T23:43:49.817Z,11.06
2022-09-22T23:46:16.690Z,11.04
2022-09-22T23:48:43.342Z,10.99
2022-09-22T23:51:10.347Z,10.92
2022-09-22T23:53:37.759Z,10.83
2022-09-22T23:56:06.250Z,10.80
2022-09-22T23:58:33.638Z,10.84
